createdAt,value
2018-03-17T00:01:46.406Z,99.40
2018-03-17T00:04:13.168Z,99.20
2018-03-17T00:06:40.860Z,98.50
2018-03-17T00:09:07.789Z,98.40
2018-03-17T00:11:34.943Z,98.80
2018-03-17T00:14:02.018Z,99.20
2018-03-17T00:16:28.744Z,99.00
2018-03-17T00:18:56.519Z,99.90
2018-03-17T00:21:24.287Z,99.70
2018-03-17T00:23:51.338Z,99.90
2018-03-17T00:26:18.186Z,99.40
2018-03-17T00:28:45.240Z,99.30
2018-03-17T00:31:13.112Z,99.00
2018-03-17T00:33:39.795Z,99.00
2018-03-17T00:36:06.506Z,98.00
2018-03-17T00:38:33.557Z,99.20
2018-03-17T00:41:00.711Z,99.20
2018-03-17T00:43:28.279Z,99.20
2018-03-17T00:45:55.428Z,99.20
2018-03-17T00:48:22.486Z,98.80
2018-03-17T00:50:49.438Z,99.00
2018-03-17T00:53:16.594Z,99.10
2018-03-17T00:55:43.340Z,98.60
2018-03-17T00:58:10.906Z,98.40
2018-03-17T01:00:37.594Z,98.90
2018-03-17T01:03:04.390Z,99.50
2018-03-17T01:05:31.221Z,98.40
2018-03-17T01:07:58.200Z,98.70
2018-03-17T01:10:26.277Z,97.60
2018-03-17T01:12:53.440Z,97.80
2018-03-17T01:15:20.258Z,98.70
2018-03-17T01:17:48.155Z,98.30
2018-03-17T01:20:15.413Z,98.30
2018-03-17T01:22:43.094Z,98.80
2018-03-17T01:25:09.931Z,98.80
2018-03-17T01:27:36.982Z,98.30
2018-03-17T01:30:03.830Z,98.40
2018-03-17T01:32:30.987Z,98.80
2018-03-17T01:34:58.235Z,99.40
2018-03-17T01:37:25.005Z,99.50
2018-03-17T01:39:52.048Z,99.00
2018-03-17T01:42:25.943Z,99.00
2018-03-17T01:44:52.898Z,98.40
2018-03-17T01:47:20.370Z,99.30
2018-03-17T01:49:48.242Z,99.20
2018-03-17T01:52:15.092Z,99.10
2018-03-17T01:54:42.352Z,99.40
2018-03-17T01:57:09.055Z,99.10
2018-03-17T01:59:36.357Z,99.20
2018-03-17T02:02:03.614Z,98.50
2018-03-17T02:04:31.281Z,98.50
2018-03-17T02:06:58.412Z,98.50
2018-03-17T02:09:25.890Z,99.10
2018-03-17T02:11:53.440Z,99.10
2018-03-17T02:14:22.160Z,99.70
2018-03-17T02:16:48.902Z,99.70
2018-03-17T02:19:15.623Z,99.10
2018-03-17T02:21:42.805Z,99.20
2018-03-17T02:24:09.656Z,99.90
2018-03-17T02:26:36.400Z,99.60
2018-03-17T02:29:03.252Z,99.20
2018-03-17T02:31:30.114Z,99.20
2018-03-17T02:33:57.257Z,99.10
2018-03-17T02:36:24.416Z,99.70
2018-03-17T02:38:51.568Z,98.80
2018-03-17T02:41:18.404Z,99.40
2018-03-17T02:43:45.271Z,99.40
2018-03-17T02:46:12.922Z,98.70
2018-03-17T02:48:40.080Z,99.10
2018-03-17T02:51:06.836Z,99.00
2018-03-17T02:53:33.893Z,99.00
2018-03-17T02:56:01.026Z,98.80
2018-03-17T02:58:28.496Z,98.50
2018-03-17T03:00:56.485Z,98.80
2018-03-17T03:03:23.230Z,98.80
2018-03-17T03:05:50.180Z,98.60
2018-03-17T03:08:17.542Z,98.80
2018-03-17T03:10:44.379Z,98.50
2018-03-17T03:13:11.242Z,97.80
2018-03-17T03:15:38.907Z,97.80
2018-03-17T03:18:06.882Z,98.50
2018-03-17T03:20:33.629Z,98.50
2018-03-17T03:23:01.512Z,97.80
2018-03-17T03:25:28.656Z,97.80
2018-03-17T03:27:55.380Z,96.90
2018-03-17T03:30:22.150Z,97.20
2018-03-17T03:32:49.203Z,97.60
2018-03-17T03:35:16.267Z,98.50
2018-03-17T03:37:43.209Z,98.60
2018-03-17T03:40:10.059Z,98.10
2018-03-17T03:42:36.805Z,97.60
2018-03-17T03:45:03.732Z,98.10
2018-03-17T03:47:32.239Z,97.90
2018-03-17T03:49:59.679Z,97.80
2018-03-17T03:52:26.555Z,97.80
2018-03-17T03:55:00.360Z,98.20
2018-03-17T03:57:27.213Z,96.90
2018-03-17T03:59:54.059Z,97.50
2018-03-17T04:02:20.732Z,98.20
2018-03-17T04:04:47.654Z,98.50
2018-03-17T04:07:14.376Z,98.90
2018-03-17T04:09:42.683Z,98.20
2018-03-17T04:12:09.941Z,98.20
2018-03-17T04:14:37.895Z,98.50
2018-03-17T04:17:05.687Z,98.50
2018-03-17T04:19:33.660Z,98.50
2018-03-17T04:22:00.920Z,98.10
2018-03-17T04:24:27.743Z,98.50
2018-03-17T04:26:54.516Z,98.20
2018-03-17T04:29:21.465Z,98.20
2018-03-17T04:31:49.849Z,98.20
2018-03-17T04:34:16.601Z,97.90
2018-03-17T04:36:43.961Z,98.20
2018-03-17T04:39:11.319Z,97.80
2018-03-17T04:41:38.067Z,97.70
2018-03-17T04:44:04.812Z,98.00
2018-03-17T04:46:31.563Z,97.90
2018-03-17T04:48:58.410Z,97.20
2018-03-17T04:51:25.155Z,97.20
2018-03-17T04:53:52.901Z,97.90
2018-03-17T04:56:20.536Z,98.30
2018-03-17T04:58:47.646Z,98.30
2018-03-17T05:01:14.399Z,98.30
2018-03-17T05:03:41.549Z,97.70
2018-03-17T05:06:08.706Z,97.80
2018-03-17T05:08:35.550Z,97.40
2018-03-17T05:11:02.606Z,97.70
2018-03-17T05:13:29.458Z,98.10
2018-03-17T05:15:56.202Z,98.20
2018-03-17T05:18:23.258Z,98.20
2018-03-17T05:20:50.006Z,98.70
2018-03-17T05:23:17.160Z,98.70
2018-03-17T05:25:44.316Z,98.60
2018-03-17T05:28:11.453Z,98.00
2018-03-17T05:30:39.240Z,97.40
2018-03-17T05:33:07.012Z,97.60
2018-03-17T05:35:33.772Z,97.30
2018-03-17T05:38:02.139Z,97.70
2018-03-17T05:40:29.094Z,97.60
2018-03-17T05:42:56.148Z,97.80
2018-03-17T05:45:23.710Z,98.00
2018-03-17T05:47:50.763Z,98.00
2018-03-17T05:50:17.510Z,97.70
2018-03-17T05:52:45.164Z,97.80
2018-03-17T05:55:11.928Z,98.20
2018-03-17T05:57:38.671Z,97.70
2018-03-17T06:00:05.422Z,98.50
2018-03-17T06:02:32.779Z,98.60
2018-03-17T06:04:59.833Z,98.30
2018-03-17T06:07:27.090Z,98.50
2018-03-17T06:09:54.555Z,99.30
2018-03-17T06:12:22.196Z,99.30
2018-03-17T06:14:49.173Z,99.30
2018-03-17T06:17:16.204Z,99.30
2018-03-17T06:19:43.256Z,99.10
2018-03-17T06:22:10.745Z,98.30
2018-03-17T06:24:37.493Z,98.30
2018-03-17T06:27:04.440Z,97.90
2018-03-17T06:29:32.108Z,97.80
2018-03-17T06:31:59.060Z,97.80
2018-03-17T06:34:25.908Z,98.00
2018-03-17T06:36:53.065Z,97.90
2018-03-17T06:39:19.916Z,97.90
2018-03-17T06:41:47.788Z,97.60
2018-03-17T06:44:14.840Z,97.60
2018-03-17T06:46:41.803Z,97.20
2018-03-17T06:49:09.256Z,97.50
2018-03-17T06:51:36.000Z,97.40
2018-03-17T06:54:03.055Z,97.00
2018-03-17T06:56:31.525Z,97.10
2018-03-17T06:58:59.005Z,97.10
2018-03-17T07:01:26.276Z,97.50
2018-03-17T07:03:53.100Z,97.30
2018-03-17T07:06:20.870Z,96.90
2018-03-17T07:08:47.628Z,98.30
2018-03-17T07:11:14.684Z,96.90
2018-03-17T07:13:41.444Z,96.30
2018-03-17T07:16:08.291Z,96.70
2018-03-17T07:18:35.129Z,95.30
2018-03-17T07:21:02.999Z,99.40
2018-03-17T07:23:29.953Z,96.00
2018-03-17T07:25:56.619Z,91.20
2018-03-17T07:28:23.534Z,84.10
2018-03-17T07:30:50.279Z,74.10
2018-03-17T07:33:17.557Z,72.60
2018-03-17T07:35:45.321Z,73.20
2018-03-17T07:38:12.000Z,71.60
2018-03-17T07:40:38.871Z,69.10
2018-03-17T07:43:06.381Z,68.30
2018-03-17T07:45:34.150Z,68.30
2018-03-17T07:48:00.977Z,68.20
2018-03-17T07:50:29.279Z,74.40
2018-03-17T07:52:57.052Z,74.40
2018-03-17T07:55:23.900Z,77.90
2018-03-17T07:57:52.590Z,81.20
2018-03-17T08:00:20.258Z,81.10
2018-03-17T08:02:47.212Z,80.50
2018-03-17T08:05:13.900Z,79.00
2018-03-17T08:07:40.560Z,80.30
2018-03-17T08:10:08.784Z,76.10
2018-03-17T08:12:35.527Z,75.10
2018-03-17T08:15:02.681Z,71.10
2018-03-17T08:17:30.236Z,67.80
2018-03-17T08:20:04.156Z,65.70
2018-03-17T08:22:31.209Z,64.70
2018-03-17T08:24:58.240Z,68.00
2018-03-17T08:27:26.239Z,71.20
2018-03-17T08:29:53.498Z,71.20
2018-03-17T08:32:20.761Z,69.30
2018-03-17T08:34:47.607Z,70.00
2018-03-17T08:37:14.558Z,72.40
2018-03-17T08:39:41.305Z,72.90
2018-03-17T08:42:08.091Z,72.70
2018-03-17T08:44:34.820Z,74.50
2018-03-17T08:47:02.875Z,74.10
2018-03-17T08:49:29.907Z,70.70
2018-03-17T08:51:57.677Z,72.90
2018-03-17T08:54:25.504Z,72.50
2018-03-17T08:56:53.338Z,72.50
2018-03-17T08:59:21.007Z,70.50
2018-03-17T09:01:48.573Z,70.50
2018-03-17T09:04:15.546Z,69.30
2018-03-17T09:06:42.271Z,69.40
2018-03-17T09:09:09.155Z,62.20
2018-03-17T09:11:35.822Z,62.70
2018-03-17T09:14:03.639Z,62.90
2018-03-17T09:16:31.610Z,62.40
2018-03-17T09:18:59.120Z,57.00
2018-03-17T09:21:27.069Z,56.90
2018-03-17T09:23:54.462Z,53.40
2018-03-17T09:26:21.164Z,52.00
2018-03-17T09:28:48.101Z,48.30
2018-03-17T09:31:15.815Z,54.90
2018-03-17T09:33:44.453Z,56.70
2018-03-17T09:36:11.305Z,56.80
2018-03-17T09:38:38.880Z,54.20
2018-03-17T09:41:05.841Z,55.10
2018-03-17T09:43:34.419Z,59.90
2018-03-17T09:46:01.474Z,60.00
2018-03-17T09:48:28.833Z,60.80
2018-03-17T09:50:56.502Z,62.80
2018-03-17T09:53:23.702Z,62.80
2018-03-17T09:55:51.372Z,62.50
2018-03-17T09:58:19.160Z,65.00
2018-03-17T10:00:46.258Z,60.60
2018-03-17T10:03:14.111Z,62.80
2018-03-17T10:05:40.868Z,60.90
2018-03-17T10:08:07.679Z,61.40
2018-03-17T10:10:34.979Z,66.20
2018-03-17T10:13:01.722Z,72.00
2018-03-17T10:15:28.780Z,70.50
2018-03-17T10:17:55.524Z,70.60
2018-03-17T10:20:22.433Z,72.60
2018-03-17T10:22:50.149Z,70.20
2018-03-17T10:25:17.708Z,70.30
2018-03-17T10:27:44.456Z,70.10
2018-03-17T10:30:11.202Z,72.80
2018-03-17T10:32:44.805Z,73.00
2018-03-17T10:35:12.064Z,73.60
2018-03-17T10:37:38.809Z,71.90
2018-03-17T10:40:05.865Z,71.50
2018-03-17T10:42:32.925Z,69.40
2018-03-17T10:45:00.076Z,68.90
2018-03-17T10:47:27.336Z,68.80
2018-03-17T10:49:54.079Z,70.10
2018-03-17T10:52:21.131Z,68.90
2018-03-17T10:54:48.185Z,66.90
2018-03-17T10:57:15.135Z,67.50
2018-03-17T10:59:42.189Z,69.60
2018-03-17T11:02:10.001Z,70.50
2018-03-17T11:04:37.830Z,69.90
2018-03-17T11:07:05.601Z,68.20
2018-03-17T11:09:33.111Z,66.10
2018-03-17T11:11:59.917Z,66.10
2018-03-17T11:14:26.769Z,67.40
2018-03-17T11:16:53.661Z,67.40
2018-03-17T11:19:20.562Z,67.80
2018-03-17T11:21:48.128Z,69.80
2018-03-17T11:24:14.876Z,66.30
2018-03-17T11:26:42.033Z,68.60
2018-03-17T11:29:08.780Z,69.00
2018-03-17T11:31:35.526Z,69.10
2018-03-17T11:34:02.375Z,66.30
2018-03-17T11:36:29.222Z,65.80
2018-03-17T11:38:56.152Z,67.70
2018-03-17T11:41:23.745Z,66.20
2018-03-17T11:43:51.610Z,65.10
2018-03-17T11:46:18.460Z,63.90
2018-03-17T11:48:45.183Z,65.10
2018-03-17T11:51:12.058Z,64.40
2018-03-17T11:53:39.932Z,64.40
2018-03-17T11:56:07.599Z,63.30
2018-03-17T11:58:34.648Z,61.10
2018-03-17T12:01:01.705Z,62.00
2018-03-17T12:03:28.557Z,64.90
2018-03-17T12:05:55.299Z,61.00
2018-03-17T12:08:22.557Z,57.90
2018-03-17T12:10:50.328Z,59.20
2018-03-17T12:13:17.483Z,59.20
2018-03-17T12:15:45.356Z,57.30
2018-03-17T12:18:12.512Z,54.80
2018-03-17T12:20:39.565Z,57.10
2018-03-17T12:23:08.145Z,59.70
2018-03-17T12:25:35.208Z,59.70
2018-03-17T12:28:02.876Z,59.10
2018-03-17T12:30:31.056Z,61.50
2018-03-17T12:32:57.775Z,59.50
2018-03-17T12:35:26.082Z,65.80
2018-03-17T12:37:53.855Z,65.70
2018-03-17T12:40:21.710Z,60.80
2018-03-17T12:42:48.269Z,65.40
2018-03-17T12:45:15.015Z,62.70
2018-03-17T12:47:41.863Z,59.70
2018-03-17T12:50:09.736Z,60.40
2018-03-17T12:52:36.461Z,58.70
2018-03-17T12:55:03.229Z,59.90
2018-03-17T12:57:30.386Z,58.90
2018-03-17T12:59:57.131Z,58.60
2018-03-17T13:02:25.755Z,58.90
2018-03-17T13:04:53.194Z,56.70
2018-03-17T13:07:20.765Z,56.80
2018-03-17T13:09:47.699Z,57.30
2018-03-17T13:12:15.264Z,59.40
2018-03-17T13:14:42.423Z,57.20
2018-03-17T13:17:09.579Z,56.30
2018-03-17T13:19:36.531Z,57.40
2018-03-17T13:22:03.272Z,58.80
2018-03-17T13:24:29.996Z,58.20
2018-03-17T13:27:10.274Z,57.50
2018-03-17T13:29:37.231Z,57.50
2018-03-17T13:32:04.384Z,57.40
2018-03-17T13:34:31.129Z,58.70
2018-03-17T13:37:10.770Z,62.40
2018-03-17T13:39:37.860Z,61.20
2018-03-17T13:42:05.389Z,60.60
2018-03-17T13:44:32.138Z,60.40
2018-03-17T13:46:59.883Z,58.00
2018-03-17T13:49:29.623Z,58.50
2018-03-17T13:51:56.783Z,58.50
2018-03-17T13:54:23.728Z,56.30
2018-03-17T13:56:50.365Z,54.00
2018-03-17T13:59:17.264Z,57.50
2018-03-17T14:01:44.069Z,53.40
2018-03-17T14:04:10.919Z,52.70
2018-03-17T14:06:38.073Z,53.30
2018-03-17T14:09:05.536Z,53.50
2018-03-17T14:11:32.798Z,53.60
2018-03-17T14:13:59.827Z,52.00
2018-03-17T14:16:27.823Z,51.30
2018-03-17T14:18:54.572Z,51.30
2018-03-17T14:21:21.624Z,50.30
2018-03-17T14:23:48.896Z,51.40
2018-03-17T14:26:18.476Z,48.00
2018-03-17T14:28:45.343Z,48.00
2018-03-17T14:31:12.703Z,45.70
2018-03-17T14:33:40.682Z,47.50
2018-03-17T14:36:08.089Z,47.80
2018-03-17T14:38:34.887Z,47.80
2018-03-17T14:41:01.837Z,49.70
2018-03-17T14:43:28.587Z,48.50
2018-03-17T14:45:55.435Z,48.20
2018-03-17T14:48:23.003Z,49.20
2018-03-17T14:50:49.851Z,57.30
2018-03-17T14:53:17.630Z,56.60
2018-03-17T14:55:44.345Z,56.60
2018-03-17T14:58:11.933Z,57.90
2018-03-17T15:00:39.299Z,57.90
2018-03-17T15:03:06.041Z,57.20
2018-03-17T15:05:32.781Z,55.80
2018-03-17T15:07:59.968Z,55.90
2018-03-17T15:10:26.687Z,57.40
2018-03-17T15:12:53.845Z,57.80
2018-03-17T15:15:21.694Z,57.10
2018-03-17T15:17:48.463Z,57.70
2018-03-17T15:20:16.131Z,57.70
2018-03-17T15:22:43.493Z,55.70
2018-03-17T15:25:10.444Z,59.00
2018-03-17T15:27:37.393Z,57.70
2018-03-17T15:30:04.344Z,58.90
2018-03-17T15:32:32.627Z,55.80
2018-03-17T15:34:59.376Z,55.80
2018-03-17T15:37:26.122Z,53.70
2018-03-17T15:39:54.810Z,53.10
2018-03-17T15:42:21.564Z,53.00
2018-03-17T15:44:48.485Z,51.90
2018-03-17T15:47:15.365Z,50.50
2018-03-17T15:49:42.312Z,51.50
2018-03-17T15:52:09.671Z,50.90
2018-03-17T15:54:36.587Z,51.20
2018-03-17T15:57:03.377Z,51.70
2018-03-17T15:59:30.168Z,51.30
2018-03-17T16:01:57.272Z,50.00
2018-03-17T16:04:24.054Z,48.70
2018-03-17T16:06:51.381Z,48.30
2018-03-17T16:09:18.126Z,50.20
2018-03-17T16:11:45.077Z,48.20
2018-03-17T16:14:12.100Z,48.50
2018-03-17T16:16:39.550Z,47.00
2018-03-17T16:19:06.978Z,47.40
2018-03-17T16:21:33.800Z,47.30
2018-03-17T16:24:01.111Z,48.50
2018-03-17T16:26:29.023Z,50.50
2018-03-17T16:28:56.298Z,48.20
2018-03-17T16:31:23.348Z,48.30
2018-03-17T16:33:50.709Z,55.50
2018-03-17T16:36:17.453Z,54.00
2018-03-17T16:38:44.381Z,50.50
2018-03-17T16:41:11.562Z,51.10
2018-03-17T16:43:38.309Z,52.10
2018-03-17T16:46:05.467Z,54.00
2018-03-17T16:48:32.220Z,56.40
2018-03-17T16:50:59.166Z,55.30
2018-03-17T16:53:26.113Z,54.60
2018-03-17T16:55:53.257Z,53.30
2018-03-17T16:58:20.646Z,52.80
2018-03-17T17:00:47.470Z,52.50
2018-03-17T17:03:15.913Z,54.60
2018-03-17T17:05:44.042Z,54.50
2018-03-17T17:08:13.246Z,54.40
2018-03-17T17:10:40.961Z,54.30
2018-03-17T17:13:08.579Z,63.50
2018-03-17T17:15:35.636Z,63.50
2018-03-17T17:18:02.531Z,64.10
2018-03-17T17:20:29.196Z,57.80
2018-03-17T17:22:56.901Z,67.20
2018-03-17T17:25:23.710Z,67.30
2018-03-17T17:27:50.494Z,66.90
2018-03-17T17:30:18.236Z,72.30
2018-03-17T17:32:45.291Z,76.70
2018-03-17T17:35:13.601Z,73.60
2018-03-17T17:37:40.756Z,73.50
2018-03-17T17:40:07.464Z,72.30
2018-03-17T17:42:34.433Z,75.90
2018-03-17T17:45:01.803Z,78.20
2018-03-17T17:47:28.671Z,80.50
2018-03-17T17:49:56.119Z,81.40
2018-03-17T17:52:23.089Z,81.40
2018-03-17T17:54:49.769Z,85.00
2018-03-17T17:57:16.468Z,84.60
2018-03-17T17:59:43.300Z,78.60
2018-03-17T18:02:10.742Z,83.30
2018-03-17T18:04:37.506Z,83.30
2018-03-17T18:07:05.297Z,84.70
2018-03-17T18:09:32.699Z,84.60
2018-03-17T18:11:59.507Z,83.20
2018-03-17T18:14:26.564Z,84.10
2018-03-17T18:16:54.230Z,83.00
2018-03-17T18:19:21.056Z,85.10
2018-03-17T18:21:48.847Z,89.00
2018-03-17T18:24:16.515Z,89.00
2018-03-17T18:26:43.876Z,88.20
2018-03-17T18:29:11.036Z,90.10
2018-03-17T18:31:38.289Z,86.90
2018-03-17T18:34:05.961Z,87.20
2018-03-17T18:36:32.806Z,90.10
2018-03-17T18:39:00.479Z,90.60
2018-03-17T18:41:28.469Z,91.50
2018-03-17T18:43:56.162Z,91.40
2018-03-17T18:46:23.902Z,90.90
2018-03-17T18:48:51.022Z,90.90
2018-03-17T18:51:18.203Z,90.10
2018-03-17T18:53:44.952Z,90.60
2018-03-17T18:56:13.455Z,91.30
2018-03-17T18:58:40.798Z,92.20
2018-03-17T19:01:08.662Z,92.10
2018-03-17T19:03:35.410Z,92.90
2018-03-17T19:06:03.495Z,92.20
2018-03-17T19:08:31.611Z,92.90
2018-03-17T19:10:59.847Z,92.50
2018-03-17T19:13:29.663Z,94.20
2018-03-17T19:15:57.581Z,94.10
2018-03-17T19:18:25.315Z,94.10
2018-03-17T19:20:53.178Z,94.30
2018-03-17T19:23:20.843Z,94.30
2018-03-17T19:25:49.456Z,94.00
2018-03-17T19:28:18.215Z,94.60
2018-03-17T19:30:44.898Z,94.60
2018-03-17T19:33:11.904Z,95.20
2018-03-17T19:35:39.394Z,94.40
2018-03-17T19:38:08.517Z,94.70
2018-03-17T19:40:37.500Z,94.70
2018-03-17T19:43:06.824Z,94.90
2018-03-17T19:45:33.995Z,94.60
2018-03-17T19:48:00.878Z,94.30
2018-03-17T19:50:28.462Z,93.30
2018-03-17T19:52:58.397Z,93.00
2018-03-17T19:55:25.128Z,93.00
2018-03-17T19:57:53.165Z,94.30
2018-03-17T20:00:19.824Z,93.90
2018-03-17T20:02:46.700Z,94.20
2018-03-17T20:05:14.878Z,93.80
2018-03-17T20:07:42.033Z,93.90
2018-03-17T20:10:08.784Z,94.40
2018-03-17T20:12:36.950Z,95.60
2018-03-17T20:15:04.528Z,95.20
2018-03-17T20:17:31.271Z,95.30
2018-03-17T20:19:59.356Z,95.60
2018-03-17T20:22:26.071Z,95.70
2018-03-17T20:24:52.945Z,95.10
2018-03-17T20:27:19.877Z,94.60
2018-03-17T20:29:48.157Z,94.90
2018-03-17T20:32:15.845Z,95.80
2018-03-17T20:34:43.942Z,95.70
2018-03-17T20:37:10.776Z,95.30
2018-03-17T20:39:38.951Z,95.60
2018-03-17T20:42:07.838Z,95.70
2018-03-17T20:44:35.340Z,95.60
2018-03-17T20:47:02.055Z,95.40
2018-03-17T20:49:29.933Z,95.90
2018-03-17T20:51:56.781Z,96.30
2018-03-17T20:54:23.613Z,95.40
2018-03-17T20:56:50.581Z,95.50
2018-03-17T20:59:17.531Z,95.50
2018-03-17T21:01:44.278Z,95.50
2018-03-17T21:04:11.787Z,95.90
2018-03-17T21:06:40.055Z,95.50
2018-03-17T21:09:07.039Z,95.40
2018-03-17T21:11:33.767Z,95.20
2018-03-17T21:14:00.534Z,95.90
2018-03-17T21:16:27.490Z,95.90
2018-03-17T21:18:54.984Z,96.50
2018-03-17T21:21:22.241Z,96.30
2018-03-17T21:23:49.263Z,96.50
2018-03-17T21:26:16.489Z,96.30
2018-03-17T21:28:43.505Z,95.90
2018-03-17T21:31:11.940Z,96.10
2018-03-17T21:33:38.737Z,95.50
2018-03-17T21:36:06.302Z,95.70
2018-03-17T21:38:33.138Z,96.50
2018-03-17T21:41:00.819Z,96.20
2018-03-17T21:43:27.973Z,95.70
2018-03-17T21:45:57.461Z,95.60
2018-03-17T21:48:25.385Z,95.50
2018-03-17T21:50:52.823Z,95.40
2018-03-17T21:53:21.711Z,95.80
2018-03-17T21:55:49.649Z,95.80
2018-03-17T21:58:16.805Z,95.70
2018-03-17T22:00:43.542Z,95.80
2018-03-17T22:03:11.139Z,95.10
2018-03-17T22:05:38.607Z,96.20
2018-03-17T22:10:38.788Z,96.00
2018-03-17T22:13:05.720Z,96.30
2018-03-17T22:15:33.511Z,96.20
2018-03-17T22:18:00.882Z,95.70
2018-03-17T22:20:28.720Z,95.80
2018-03-17T22:22:55.687Z,96.10
2018-03-17T22:25:23.392Z,96.30
2018-03-17T22:27:51.307Z,95.60
2018-03-17T22:30:18.638Z,95.60
2018-03-17T22:32:45.405Z,95.90
2018-03-17T22:35:13.944Z,95.90
2018-03-17T22:37:40.939Z,95.80
2018-03-17T22:40:08.413Z,96.70
2018-03-17T22:42:35.223Z,96.60
2018-03-17T22:45:01.882Z,96.40
2018-03-17T22:47:29.325Z,96.20
2018-03-17T22:49:55.976Z,96.20
2018-03-17T22:52:22.710Z,95.50
2018-03-17T22:54:50.102Z,96.10
2018-03-17T22:57:17.000Z,96.00
2018-03-17T22:59:44.744Z,96.80
2018-03-17T23:02:12.168Z,96.80
2018-03-17T23:07:16.045Z,96.20
2018-03-17T23:12:15.089Z,96.60
2018-03-17T23:14:42.720Z,96.10
2018-03-17T23:17:09.893Z,95.70
2018-03-17T23:19:37.408Z,97.10
2018-03-17T23:22:04.479Z,96.60
2018-03-17T23:24:32.265Z,96.20
2018-03-17T23:26:59.382Z,96.20
2018-03-17T23:29:26.604Z,96.60
2018-03-17T23:31:55.033Z,96.40
2018-03-17T23:34:21.961Z,96.30
2018-03-17T23:36:53.714Z,95.90
2018-03-17T23:39:21.393Z,96.10
2018-03-17T23:41:48.150Z,96.10
2018-03-17T23:44:15.328Z,96.30
2018-03-17T23:46:43.256Z,95.90
2018-03-17T23:49:10.490Z,96.00
2018-03-17T23:51:37.949Z,96.30
2018-03-17T23:54:06.537Z,96.50
2018-03-17T23:56:34.183Z,97.10
2018-03-17T23:59:01.025Z,96.70
